AUA514 LIPE-LOWW
Flight info
| Callsign | AUA514 |
|---|---|
| Flight time | N/A |
| Altitude | 34000 |
| Route | LUMAV M859 CHI DCT BARPI/N0411F330 DCT LAPNA |
| Aircraft | E195/M-SDE3GILORVW/S |
Departure
| Time | 2026-05-04 13:50 |
|---|---|
| Airport | Bologna Guglielmo Marconi Airport (LIPE) |
Arrival
| Time | N/A |
|---|---|
| Airport | Vienna International Airport (LOWW) |
| Time | Latitude | Longitude | Altitude | Speed | Heading |
|---|---|---|---|---|---|
| 2026-05-04 13:43 | 44.53021 | 11.29468 | 133 ft | 0 kts | 207° |
| 2026-05-04 13:44 | 44.53026 | 11.29472 | 134 ft | 2 kts | 207° |
| 2026-05-04 13:44 | 44.53047 | 11.29485 | 134 ft | 4 kts | 194° |
| 2026-05-04 13:44 | 44.53073 | 11.29490 | 134 ft | 4 kts | 171° |
| 2026-05-04 13:44 | 44.53089 | 11.29484 | 134 ft | 1 kts | 156° |
| 2026-05-04 13:46 | 44.53087 | 11.29486 | 134 ft | 1 kts | 152° |
| 2026-05-04 13:46 | 44.53078 | 11.29499 | 134 ft | 3 kts | 134° |
| 2026-05-04 13:47 | 44.53068 | 11.29539 | 134 ft | 6 kts | 91° |
| 2026-05-04 13:47 | 44.53077 | 11.29608 | 132 ft | 9 kts | 97° |
| 2026-05-04 13:47 | 44.53046 | 11.29706 | 127 ft | 13 kts | 115° |
| 2026-05-04 13:47 | 44.53003 | 11.29826 | 128 ft | 14 kts | 117° |
| 2026-05-04 13:48 | 44.52975 | 11.29963 | 126 ft | 16 kts | 92° |
| 2026-05-04 13:48 | 44.52974 | 11.30124 | 127 ft | 17 kts | 85° |
| 2026-05-04 13:48 | 44.53016 | 11.30242 | 126 ft | 10 kts | 11° |
| 2026-05-04 13:48 | 44.53086 | 11.30137 | 123 ft | 30 kts | 297° |
| 2026-05-04 13:49 | 44.53274 | 11.29624 | 134 ft | 92 kts | 297° |
| 2026-05-04 13:49 | 44.53661 | 11.28575 | 136 ft | 151 kts | 300° |
| 2026-05-04 13:49 | 44.54094 | 11.27192 | 400 ft | 157 kts | 285° |
| 2026-05-04 13:49 | 44.54351 | 11.25665 | 590 ft | 163 kts | 288° |
| 2026-05-04 13:50 | 44.54803 | 11.24201 | 845 ft | 165 kts | 301° |
| 2026-05-04 13:50 | 44.55435 | 11.22811 | 998 ft | 176 kts | 304° |
| 2026-05-04 13:50 | 44.56115 | 11.21291 | 1095 ft | 190 kts | 301° |
| 2026-05-04 13:50 | 44.56785 | 11.19578 | 1418 ft | 212 kts | 298° |
| 2026-05-04 13:51 | 44.57495 | 11.17661 | 1928 ft | 230 kts | 298° |
| 2026-05-04 13:51 | 44.58296 | 11.15640 | 2848 ft | 246 kts | 307° |
| 2026-05-04 13:51 | 44.59637 | 11.14137 | 3679 ft | 261 kts | 340° |
| 2026-05-04 13:51 | 44.61437 | 11.13855 | 4778 ft | 265 kts | 8° |
| 2026-05-04 13:52 | 44.64570 | 11.16401 | 6924 ft | 270 kts | 53° |
| 2026-05-04 13:52 | 44.65651 | 11.18577 | 7913 ft | 274 kts | 59° |
| 2026-05-04 13:52 | 44.66683 | 11.20871 | 8859 ft | 280 kts | 59° |
| 2026-05-04 13:53 | 44.67738 | 11.23205 | 9763 ft | 286 kts | 60° |
| 2026-05-04 13:53 | 44.68801 | 11.25645 | 10371 ft | 301 kts | 62° |
| 2026-05-04 13:53 | 44.69854 | 11.28293 | 10854 ft | 318 kts | 64° |
| 2026-05-04 13:54 | 44.71916 | 11.33940 | 12195 ft | 331 kts | 66° |
| 2026-05-04 13:54 | 44.72927 | 11.36896 | 12984 ft | 332 kts | 68° |
| 2026-05-04 13:54 | 44.74902 | 11.42799 | 14329 ft | 339 kts | 67° |
| 2026-05-04 13:55 | 44.75941 | 11.45778 | 14932 ft | 342 kts | 66° |
| 2026-05-04 13:55 | 44.78067 | 11.51884 | 15947 ft | 352 kts | 65° |
| 2026-05-04 13:55 | 44.79146 | 11.55004 | 16453 ft | 357 kts | 65° |
| 2026-05-04 13:56 | 44.80245 | 11.58175 | 16923 ft | 361 kts | 65° |
| 2026-05-04 13:56 | 44.81352 | 11.61374 | 17421 ft | 365 kts | 65° |
| 2026-05-04 13:56 | 44.83780 | 11.67754 | 18298 ft | 373 kts | 61° |
| 2026-05-04 13:57 | 44.85062 | 11.70951 | 18686 ft | 376 kts | 61° |
| 2026-05-04 13:57 | 44.86338 | 11.74184 | 19083 ft | 378 kts | 61° |
| 2026-05-04 13:58 | 44.90150 | 11.83950 | 20189 ft | 383 kts | 62° |
| 2026-05-04 13:58 | 44.92724 | 11.90581 | 20868 ft | 387 kts | 62° |
| 2026-05-04 13:58 | 44.94010 | 11.93917 | 21221 ft | 387 kts | 63° |
| 2026-05-04 13:59 | 44.95298 | 11.97265 | 21532 ft | 389 kts | 63° |
| 2026-05-04 13:59 | 44.96589 | 12.00626 | 21865 ft | 389 kts | 63° |
| 2026-05-04 13:59 | 44.99178 | 12.07378 | 22406 ft | 393 kts | 63° |
| 2026-05-04 14:00 | 45.00480 | 12.10780 | 22657 ft | 395 kts | 63° |
| 2026-05-04 14:00 | 45.03103 | 12.17638 | 23142 ft | 398 kts | 63° |
| 2026-05-04 14:00 | 45.04401 | 12.21045 | 23363 ft | 399 kts | 63° |
| 2026-05-04 14:01 | 45.05721 | 12.24505 | 23594 ft | 400 kts | 63° |
| 2026-05-04 14:01 | 45.07043 | 12.27976 | 23785 ft | 401 kts | 63° |
| 2026-05-04 14:01 | 45.09871 | 12.34812 | 24138 ft | 404 kts | 59° |
| 2026-05-04 14:02 | 45.10864 | 12.37101 | 24274 ft | 403 kts | 59° |
| 2026-05-04 14:02 | 45.12314 | 12.40481 | 24525 ft | 401 kts | 59° |
| 2026-05-04 14:02 | 45.13742 | 12.43835 | 24666 ft | 402 kts | 59° |
| 2026-05-04 14:02 | 45.15182 | 12.47240 | 24807 ft | 403 kts | 59° |
| 2026-05-04 14:03 | 45.16623 | 12.50656 | 24939 ft | 404 kts | 59° |
| 2026-05-04 14:03 | 45.18061 | 12.54068 | 25195 ft | 401 kts | 59° |
| 2026-05-04 14:03 | 45.19476 | 12.57435 | 25635 ft | 393 kts | 59° |
| 2026-05-04 14:03 | 45.20873 | 12.60762 | 25919 ft | 390 kts | 59° |
| 2026-05-04 14:04 | 45.23632 | 12.67341 | 26513 ft | 384 kts | 59° |
| 2026-05-04 14:04 | 45.24990 | 12.70586 | 26790 ft | 382 kts | 59° |
| 2026-05-04 14:04 | 45.26345 | 12.73828 | 26991 ft | 382 kts | 59° |
| 2026-05-04 14:05 | 45.29050 | 12.80309 | 27197 ft | 388 kts | 59° |
| 2026-05-04 14:05 | 45.30433 | 12.83628 | 27207 ft | 393 kts | 59° |
| 2026-05-04 14:05 | 45.31829 | 12.86985 | 27214 ft | 397 kts | 59° |
| 2026-05-04 14:06 | 45.33242 | 12.90386 | 27228 ft | 401 kts | 59° |
| 2026-05-04 14:06 | 45.34664 | 12.93811 | 27243 ft | 404 kts | 59° |
| 2026-05-04 14:06 | 45.36100 | 12.97273 | 27262 ft | 407 kts | 59° |
| 2026-05-04 14:06 | 45.37544 | 13.00762 | 27274 ft | 410 kts | 59° |
| 2026-05-04 14:07 | 45.38997 | 13.04275 | 27284 ft | 412 kts | 59° |
| 2026-05-04 14:07 | 45.40458 | 13.07811 | 27293 ft | 415 kts | 59° |
| 2026-05-04 14:07 | 45.41904 | 13.11315 | 27300 ft | 417 kts | 59° |
| 2026-05-04 14:07 | 45.43376 | 13.14881 | 27313 ft | 419 kts | 59° |
| 2026-05-04 14:08 | 45.44864 | 13.18473 | 27322 ft | 420 kts | 59° |
| 2026-05-04 14:08 | 45.46346 | 13.22070 | 27318 ft | 421 kts | 59° |
| 2026-05-04 14:08 | 45.47791 | 13.25610 | 27482 ft | 412 kts | 59° |
| 2026-05-04 14:08 | 45.49233 | 13.29142 | 27634 ft | 410 kts | 59° |
| 2026-05-04 14:09 | 45.52098 | 13.36151 | 27939 ft | 407 kts | 59° |
| 2026-05-04 14:09 | 45.53518 | 13.39629 | 28142 ft | 403 kts | 59° |
| 2026-05-04 14:10 | 45.56358 | 13.46593 | 28164 ft | 409 kts | 59° |
| 2026-05-04 14:10 | 45.59301 | 13.53582 | 28144 ft | 413 kts | 54° |
| 2026-05-04 14:11 | 45.62617 | 13.60351 | 28075 ft | 418 kts | 53° |
| 2026-05-04 14:11 | 45.67652 | 13.70589 | 28079 ft | 421 kts | 53° |
| 2026-05-04 14:12 | 45.71016 | 13.77463 | 28092 ft | 423 kts | 54° |
| 2026-05-04 14:13 | 45.76079 | 13.87839 | 28090 ft | 426 kts | 53° |
| 2026-05-04 14:13 | 45.79486 | 13.94840 | 28092 ft | 428 kts | 54° |
| 2026-05-04 14:14 | 45.82874 | 14.01816 | 28088 ft | 430 kts | 54° |
| 2026-05-04 14:14 | 45.88003 | 14.12417 | 28078 ft | 431 kts | 54° |
| 2026-05-04 14:15 | 45.94834 | 14.26599 | 28074 ft | 433 kts | 54° |
| 2026-05-04 14:16 | 45.99962 | 14.37294 | 28067 ft | 433 kts | 54° |
| 2026-05-04 14:17 | 46.05076 | 14.47998 | 28061 ft | 433 kts | 54° |
| 2026-05-04 14:18 | 46.10182 | 14.58722 | 28049 ft | 430 kts | 54° |
| 2026-05-04 14:18 | 46.13461 | 14.65638 | 28056 ft | 416 kts | 54° |
| 2026-05-04 14:19 | 46.16717 | 14.72518 | 28069 ft | 419 kts | 53° |
| 2026-05-04 14:19 | 46.20063 | 14.79598 | 28071 ft | 437 kts | 54° |
| 2026-05-04 14:20 | 46.23563 | 14.87030 | 28037 ft | 455 kts | 53° |
| 2026-05-04 14:20 | 46.27131 | 14.94624 | 28031 ft | 462 kts | 54° |
| 2026-05-04 14:21 | 46.32524 | 15.06153 | 28026 ft | 460 kts | 54° |
| 2026-05-04 14:21 | 46.36109 | 15.13826 | 28020 ft | 461 kts | 54° |
| 2026-05-04 14:22 | 46.39688 | 15.21526 | 28025 ft | 459 kts | 54° |
| 2026-05-04 14:22 | 46.43238 | 15.29173 | 28006 ft | 460 kts | 54° |
| 2026-05-04 14:23 | 46.46794 | 15.36861 | 27996 ft | 459 kts | 54° |
| 2026-05-04 14:23 | 46.48572 | 15.40715 | 27999 ft | 459 kts | 54° |
| 2026-05-04 14:23 | 46.50350 | 15.44576 | 27997 ft | 459 kts | 54° |
| 2026-05-04 14:24 | 46.52187 | 15.48343 | 27995 ft | 458 kts | 47° |
| 2026-05-04 14:24 | 46.54609 | 15.51274 | 28026 ft | 452 kts | 27° |
| 2026-05-04 14:24 | 46.57526 | 15.52856 | 28044 ft | 446 kts | 11° |
| 2026-05-04 14:24 | 46.60568 | 15.53702 | 27983 ft | 447 kts | 8° |
| 2026-05-04 14:25 | 46.63618 | 15.54615 | 27997 ft | 449 kts | 11° |
| 2026-05-04 14:25 | 46.69675 | 15.56834 | 27985 ft | 449 kts | 13° |
| 2026-05-04 14:25 | 46.72692 | 15.58003 | 27992 ft | 449 kts | 13° |
| 2026-05-04 14:26 | 46.75717 | 15.59183 | 27981 ft | 448 kts | 13° |
| 2026-05-04 14:26 | 46.78691 | 15.60346 | 27987 ft | 448 kts | 13° |
| 2026-05-04 14:26 | 46.81707 | 15.61532 | 27990 ft | 448 kts | 13° |
| 2026-05-04 14:26 | 46.84712 | 15.62713 | 27991 ft | 448 kts | 13° |
| 2026-05-04 14:27 | 46.87731 | 15.63898 | 27984 ft | 448 kts | 13° |
| 2026-05-04 14:27 | 46.90739 | 15.65080 | 27988 ft | 448 kts | 13° |
| 2026-05-04 14:27 | 46.93756 | 15.66270 | 27994 ft | 448 kts | 13° |
| 2026-05-04 14:27 | 46.96771 | 15.67460 | 27986 ft | 447 kts | 13° |
| 2026-05-04 14:28 | 46.99775 | 15.68646 | 27990 ft | 448 kts | 13° |
| 2026-05-04 14:28 | 47.02783 | 15.69836 | 27991 ft | 447 kts | 13° |
| 2026-05-04 14:28 | 47.05750 | 15.71011 | 27993 ft | 447 kts | 13° |
| 2026-05-04 14:28 | 47.08744 | 15.72198 | 27764 ft | 441 kts | 13° |
| 2026-05-04 14:29 | 47.14463 | 15.74442 | 26897 ft | 414 kts | 13° |
| 2026-05-04 14:29 | 47.19941 | 15.76572 | 25789 ft | 399 kts | 12° |
| 2026-05-04 14:30 | 47.22609 | 15.77615 | 25266 ft | 393 kts | 13° |
| 2026-05-04 14:30 | 47.25228 | 15.78646 | 24750 ft | 387 kts | 12° |
| 2026-05-04 14:30 | 47.30370 | 15.80674 | 23746 ft | 380 kts | 13° |
| 2026-05-04 14:31 | 47.32922 | 15.81682 | 23209 ft | 380 kts | 12° |
| 2026-05-04 14:31 | 47.38067 | 15.83496 | 22238 ft | 380 kts | 6° |
| 2026-05-04 14:32 | 47.43291 | 15.84518 | 21235 ft | 383 kts | 5° |
| 2026-05-04 14:32 | 47.45976 | 15.85016 | 20715 ft | 390 kts | 5° |
| 2026-05-04 14:32 | 47.48677 | 15.85528 | 20197 ft | 393 kts | 5° |
| 2026-05-04 14:32 | 47.51388 | 15.86046 | 19687 ft | 390 kts | 5° |
| 2026-05-04 14:33 | 47.54070 | 15.86540 | 19172 ft | 386 kts | 5° |
| 2026-05-04 14:33 | 47.56729 | 15.87101 | 18667 ft | 386 kts | 8° |
| 2026-05-04 14:33 | 47.59364 | 15.87840 | 18105 ft | 384 kts | 9° |
| 2026-05-04 14:33 | 47.61970 | 15.88588 | 17662 ft | 379 kts | 9° |
| 2026-05-04 14:34 | 47.64522 | 15.89338 | 17173 ft | 379 kts | 9° |
| 2026-05-04 14:34 | 47.67105 | 15.90081 | 16666 ft | 376 kts | 9° |
| 2026-05-04 14:34 | 47.69669 | 15.90804 | 16171 ft | 374 kts | 9° |
| 2026-05-04 14:34 | 47.72221 | 15.91526 | 15674 ft | 372 kts | 9° |
| 2026-05-04 14:35 | 47.74760 | 15.92242 | 15189 ft | 368 kts | 9° |
| 2026-05-04 14:35 | 47.77263 | 15.92948 | 14697 ft | 363 kts | 9° |
| 2026-05-04 14:35 | 47.79732 | 15.93638 | 14207 ft | 358 kts | 9° |
| 2026-05-04 14:35 | 47.82171 | 15.94310 | 13744 ft | 353 kts | 9° |
| 2026-05-04 14:36 | 47.84577 | 15.94886 | 13264 ft | 348 kts | 7° |
| 2026-05-04 14:36 | 47.86958 | 15.95427 | 12825 ft | 342 kts | 7° |
| 2026-05-04 14:36 | 47.89288 | 15.95967 | 12362 ft | 334 kts | 7° |
| 2026-05-04 14:36 | 47.91548 | 15.96487 | 11940 ft | 323 kts | 7° |
| 2026-05-04 14:37 | 47.93734 | 15.97000 | 11504 ft | 314 kts | 7° |
| 2026-05-04 14:37 | 47.95858 | 15.97512 | 11112 ft | 305 kts | 7° |
| 2026-05-04 14:37 | 47.97924 | 15.97988 | 10689 ft | 296 kts | 6° |
| 2026-05-04 14:37 | 47.99925 | 15.98454 | 10316 ft | 286 kts | 6° |
| 2026-05-04 14:38 | 48.01838 | 15.98915 | 9983 ft | 278 kts | 7° |
| 2026-05-04 14:38 | 48.03728 | 15.99391 | 9555 ft | 271 kts | 7° |
| 2026-05-04 14:38 | 48.05557 | 15.99849 | 9235 ft | 257 kts | 7° |
| 2026-05-04 14:38 | 48.07297 | 16.00289 | 8908 ft | 258 kts | 6° |
| 2026-05-04 14:39 | 48.09076 | 16.00744 | 8559 ft | 258 kts | 7° |
| 2026-05-04 14:39 | 48.10838 | 16.01184 | 8228 ft | 255 kts | 7° |
| 2026-05-04 14:39 | 48.12574 | 16.01598 | 7884 ft | 250 kts | 7° |
| 2026-05-04 14:40 | 48.15969 | 16.02441 | 7226 ft | 244 kts | 7° |
| 2026-05-04 14:40 | 48.17626 | 16.02845 | 6932 ft | 239 kts | 7° |
| 2026-05-04 14:40 | 48.19254 | 16.03200 | 6628 ft | 232 kts | 7° |
| 2026-05-04 14:40 | 48.20831 | 16.03508 | 6299 ft | 225 kts | 7° |
| 2026-05-04 14:41 | 48.22362 | 16.03786 | 6012 ft | 218 kts | 7° |
| 2026-05-04 14:41 | 48.23826 | 16.04045 | 5947 ft | 207 kts | 7° |
| 2026-05-04 14:41 | 48.26396 | 16.05424 | 5934 ft | 196 kts | 60° |
| 2026-05-04 14:42 | 48.26053 | 16.09091 | 6292 ft | 201 kts | 107° |
| 2026-05-04 14:42 | 48.25828 | 16.11072 | 6428 ft | 186 kts | 107° |
| 2026-05-04 14:42 | 48.25558 | 16.13084 | 6293 ft | 201 kts | 103° |
| 2026-05-04 14:43 | 48.25440 | 16.15191 | 6014 ft | 204 kts | 95° |
| 2026-05-04 14:43 | 48.25390 | 16.17299 | 5760 ft | 200 kts | 104° |
| 2026-05-04 14:43 | 48.25055 | 16.19293 | 5437 ft | 194 kts | 114° |
| 2026-05-04 14:43 | 48.24556 | 16.21140 | 4984 ft | 189 kts | 116° |
| 2026-05-04 14:44 | 48.24007 | 16.22944 | 4345 ft | 187 kts | 126° |
| 2026-05-04 14:44 | 48.23246 | 16.24231 | 4513 ft | 163 kts | 140° |
| 2026-05-04 14:44 | 48.22389 | 16.25314 | 4507 ft | 160 kts | 140° |
| 2026-05-04 14:44 | 48.21567 | 16.26435 | 4335 ft | 160 kts | 138° |
| 2026-05-04 14:45 | 48.20852 | 16.27644 | 4377 ft | 155 kts | 131° |